Time;durP1;ratioP1;P1;durP2;ratioP2;P2;SDS_P1;SDS_P2;PMS_P1;PMS_P2;Temp;Humidity;BMP_temperature;BMP_pressure;BME280_temperature;BME280_humidity;BME280_pressure;Samples;Min_cycle;Max_cycle;Signal;HPM_P1;HPM_P2
2022/05/29 00:01:19;;;;;;;3.78;2.00;;;;;;;8.11;100.00;98510.63;5024250;28;20056;-60
2022/05/29 00:03:45;;;;;;;4.15;2.25;;;;;;;8.11;100.00;98514.94;5033390;28;20041;-61
2022/05/29 00:06:12;;;;;;;3.15;1.88;;;;;;;8.09;100.00;98513.25;5048730;28;20064;-60
2022/05/29 00:08:40;;;;;;;4.43;2.00;;;;;;;8.08;100.00;98510.72;5033285;28;20382;-60
2022/05/29 00:11:08;;;;;;;3.03;1.60;;;;;;;8.08;100.00;98515.91;5064490;28;20045;-61
2022/05/29 00:13:34;;;;;;;4.88;1.83;;;;;;;8.11;100.00;98517.53;5030813;28;20044;-53
2022/05/29 00:15:59;;;;;;;3.03;1.63;;;;;;;8.12;100.00;98516.59;5033851;28;20041;-56
2022/05/29 00:18:25;;;;;;;3.38;1.80;;;;;;;8.08;100.00;98519.34;5033912;28;20425;-54
2022/05/29 00:20:56;;;;;;;2.92;1.85;;;;;;;8.08;100.00;98524.50;5033650;28;20033;-56
2022/05/29 00:23:23;;;;;;;3.17;1.77;;;;;;;8.06;100.00;98526.31;5031785;28;20115;-53
2022/05/29 00:25:50;;;;;;;6.20;1.80;;;;;;;8.06;100.00;98526.31;5031937;28;20065;-52
2022/05/29 00:28:16;;;;;;;5.20;2.08;;;;;;;7.98;100.00;98514.63;5032976;28;20045;-53
2022/05/29 00:30:41;;;;;;;5.20;2.03;;;;;;;8.06;100.00;98534.06;5036767;28;20076;-54
2022/05/29 00:33:08;;;;;;;3.83;2.22;;;;;;;8.07;100.00;98534.91;5034246;28;20119;-53
2022/05/29 00:35:34;;;;;;;4.15;2.03;;;;;;;8.06;100.00;98512.53;5046627;28;20140;-53
2022/05/29 00:38:00;;;;;;;5.22;1.58;;;;;;;8.04;100.00;98522.97;5040280;28;20475;-56
2022/05/29 00:40:33;;;;;;;3.65;1.70;;;;;;;8.05;100.00;98523.81;5046951;28;20028;-53
2022/05/29 00:42:59;;;;;;;4.10;1.92;;;;;;;8.03;100.00;98534.22;5018193;28;20486;-54
2022/05/29 00:45:26;;;;;;;2.28;1.60;;;;;;;8.04;100.00;98530.72;5037890;28;20543;-52
2022/05/29 00:47:52;;;;;;;1.40;1.27;;;;;;;8.06;100.00;98533.22;5033427;28;20119;-55
2022/05/29 00:50:21;;;;;;;5.85;2.17;;;;;;;8.10;100.00;98537.41;5049840;28;20037;-54
2022/05/29 00:52:48;;;;;;;4.65;1.75;;;;;;;8.14;100.00;98551.03;5037995;28;20043;-52
2022/05/29 00:55:18;;;;;;;3.90;1.38;;;;;;;8.15;100.00;98540.63;5050481;28;20048;-54
2022/05/29 00:58:08;;;;;;;7.43;1.85;;;;;;;8.09;100.00;98533.97;5043870;28;20063;-53
2022/05/29 01:00:34;;;;;;;3.97;1.60;;;;;;;8.22;100.00;98547.22;5021722;28;20045;-51
2022/05/29 01:03:02;;;;;;;3.25;1.50;;;;;;;8.27;100.00;98547.03;5033540;28;20040;-53
2022/05/29 01:05:30;;;;;;;3.67;1.50;;;;;;;8.31;100.00;98551.19;5030975;28;20060;-53
2022/05/29 01:08:09;;;;;;;2.35;1.35;;;;;;;8.33;100.00;98546.78;5032304;28;20140;-54
2022/05/29 01:10:50;;;;;;;2.42;1.58;;;;;;;8.36;100.00;98544.91;5014646;28;20047;-55
2022/05/29 01:13:42;;;;;;;3.15;1.38;;;;;;;8.40;100.00;98536.09;5031657;28;20071;-55
2022/05/29 01:16:26;;;;;;;2.55;1.52;;;;;;;8.48;100.00;98549.53;5040424;28;20044;-54
2022/05/29 01:19:27;;;;;;;3.92;1.40;;;;;;;8.55;100.00;98544.09;5038366;28;20059;-54
2022/05/29 01:22:08;;;;;;;1.67;1.23;;;;;;;8.55;100.00;98539.75;5010307;28;20053;-52
2022/05/29 01:24:42;;;;;;;2.65;1.27;;;;;;;8.60;100.00;98547.31;5044936;28;20094;-52
2022/05/29 01:27:08;;;;;;;5.38;1.48;;;;;;;8.68;100.00;98548.69;5051492;28;20123;-55
2022/05/29 01:29:59;;;;;;;2.60;1.42;;;;;;;8.74;100.00;98550.97;5043755;28;20139;-50
2022/05/29 01:32:52;;;;;;;2.13;1.20;;;;;;;8.75;100.00;98550.06;5021328;28;20041;-55
2022/05/29 01:35:33;;;;;;;2.83;1.60;;;;;;;8.74;97.89;98553.56;5034941;28;20041;-54
2022/05/29 01:38:17;;;;;;;1.52;1.10;;;;;;;8.71;97.37;98547.69;5039350;28;20135;-52
2022/05/29 01:40:48;;;;;;;2.83;1.17;;;;;;;8.64;98.69;98560.06;5023110;28;20591;-55
2022/05/29 01:43:35;;;;;;;3.92;1.42;;;;;;;8.63;100.00;98567.94;5048950;28;20041;-53
2022/05/29 01:46:02;;;;;;;3.35;1.38;;;;;;;8.61;100.00;98570.56;5032657;28;20452;-53
2022/05/29 01:48:29;;;;;;;4.85;1.13;;;;;;;8.59;99.62;98567.19;5032444;28;20044;-51
2022/05/29 01:50:59;;;;;;;3.50;1.48;;;;;;;8.63;100.00;98580.88;5023758;28;20045;-53
2022/05/29 01:54:00;;;;;;;5.88;1.75;;;;;;;8.64;98.69;98575.59;5029836;28;20113;-52
2022/05/29 01:56:32;;;;;;;3.70;1.42;;;;;;;8.65;98.45;98574.69;5055615;28;20483;-52
2022/05/29 01:59:02;;;;;;;7.80;1.45;;;;;;;8.70;100.00;98588.28;5008042;28;20462;-52
2022/05/29 02:01:32;;;;;;;4.45;1.17;;;;;;;8.72;100.00;98591.66;4997870;28;20039;-50
2022/05/29 02:04:02;;;;;;;3.60;1.10;;;;;;;8.75;100.00;98585.50;5026976;28;20048;-52
2022/05/29 02:09:33;;;;;;;1.73;1.10;;;;;;;8.72;98.43;98568.34;5020257;28;20045;-55
2022/05/29 02:12:00;;;;;;;2.78;1.05;;;;;;;8.81;99.61;98588.66;5039285;28;20127;-55
2022/05/29 02:14:34;;;;;;;3.88;1.10;;;;;;;8.67;100.00;98565.13;5037497;28;20127;-54
2022/05/29 02:17:08;;;;;;;3.72;0.98;;;;;;;8.84;98.53;98601.50;5029994;28;20038;-54
2022/05/29 02:19:41;;;;;;;5.97;1.40;;;;;;;8.73;100.00;98585.59;5032999;28;20144;-53
2022/05/29 02:22:14;;;;;;;3.00;1.20;;;;;;;8.79;99.25;98605.22;5038512;28;20087;-52
2022/05/29 02:24:44;;;;;;;3.47;1.00;;;;;;;8.73;99.31;98597.69;5032721;28;20131;-56
2022/05/29 02:27:15;;;;;;;3.10;1.20;;;;;;;8.81;100.00;98608.56;5032757;28;20067;-56
2022/05/29 02:29:42;;;;;;;5.00;1.08;;;;;;;8.82;100.00;98605.06;5025705;28;20095;-56
2022/05/29 02:32:39;;;;;;;3.40;0.98;;;;;;;8.77;98.84;98607.84;5050928;28;20420;-54
2022/05/29 02:35:46;;;;;;;3.28;1.20;;;;;;;8.77;96.36;98615.63;5043951;28;20500;-51
2022/05/29 02:38:29;;;;;;;3.08;1.05;;;;;;;8.76;95.96;98615.69;5042323;28;20052;-54
2022/05/29 02:40:59;;;;;;;1.58;0.95;;;;;;;8.77;97.41;98618.22;5029628;28;20124;-53
2022/05/29 02:43:51;;;;;;;1.63;0.98;;;;;;;8.72;95.05;98630.53;5043538;28;20040;-51
2022/05/29 02:46:38;;;;;;;3.50;1.00;;;;;;;8.75;96.27;98639.91;5049241;28;20033;-51
2022/05/29 02:49:28;;;;;;;1.70;1.05;;;;;;;8.75;98.39;98637.31;5043184;28;20049;-56
2022/05/29 02:52:03;;;;;;;1.58;0.90;;;;;;;8.73;97.13;98642.59;5051252;28;20071;-55
2022/05/29 02:54:31;;;;;;;1.73;0.88;;;;;;;8.77;97.18;98651.06;5040761;28;20531;-55
2022/05/29 02:56:59;;;;;;;1.73;1.20;;;;;;;8.76;98.99;98642.44;5034833;28;20105;-54
2022/05/29 02:59:29;;;;;;;4.55;0.93;;;;;;;8.71;98.85;98639.22;5045079;28;20098;-51
2022/05/29 03:01:59;;;;;;;3.20;0.93;;;;;;;8.78;100.00;98647.56;5035258;28;20041;-52
2022/05/29 03:04:32;;;;;;;4.40;0.90;;;;;;;8.75;97.58;98647.69;5037323;28;20060;-52
2022/05/29 03:07:20;;;;;;;2.33;0.90;;;;;;;8.84;97.15;98668.03;4997565;28;20038;-55
2022/05/29 03:10:10;;;;;;;7.18;1.40;;;;;;;8.89;100.00;98672.13;5047095;28;20037;-52
2022/05/29 03:12:36;;;;;;;1.55;0.88;;;;;;;8.93;97.04;98665.03;5038047;28;20044;-53
2022/05/29 03:15:17;;;;;;;1.88;1.38;;;;;;;8.98;97.33;98678.63;5035537;28;20048;-54
2022/05/29 03:17:59;;;;;;;1.67;1.15;;;;;;;9.06;98.37;98673.09;5048269;28;20504;-52
2022/05/29 03:20:36;;;;;;;3.45;1.60;;;;;;;9.14;96.01;98668.44;5034367;28;20055;-54
2022/05/29 03:23:50;;;;;;;2.95;1.15;;;;;;;9.32;98.82;98671.03;5036220;28;20072;-53
2022/05/29 03:26:39;;;;;;;2.25;0.98;;;;;;;9.40;94.73;98662.06;5041554;28;20079;-54
2022/05/29 03:29:09;;;;;;;1.90;0.90;;;;;;;9.57;93.37;98682.88;5029164;28;20053;-52
2022/05/29 03:31:36;;;;;;;1.58;0.80;;;;;;;9.70;93.65;98681.41;5038056;28;20033;-55
2022/05/29 03:34:02;;;;;;;1.98;0.80;;;;;;;9.71;91.87;98690.88;5029929;28;20346;-53
2022/05/29 03:36:29;;;;;;;3.53;0.98;;;;;;;9.63;90.85;98686.03;5038694;28;20048;-53
2022/05/29 03:38:55;;;;;;;2.25;1.00;;;;;;;9.54;92.60;98667.44;5034530;28;20132;-55
2022/05/29 03:41:33;;;;;;;6.35;1.10;;;;;;;9.61;93.45;98679.22;5033951;28;20064;-54
2022/05/29 03:43:58;;;;;;;0.70;0.70;;;;;;;9.76;92.07;98694.94;5042236;28;20409;-52
2022/05/29 03:46:25;;;;;;;2.10;0.90;;;;;;;9.81;91.63;98702.50;5038589;28;20051;-54
2022/05/29 03:48:51;;;;;;;2.60;1.15;;;;;;;9.73;88.54;98700.25;5035416;28;20044;-55
2022/05/29 03:51:17;;;;;;;2.15;1.20;;;;;;;9.71;90.07;98702.09;5050416;28;20425;-56
2022/05/29 03:53:43;;;;;;;2.40;1.10;;;;;;;9.67;89.22;98691.94;5044495;28;20132;-53
2022/05/29 03:56:09;;;;;;;4.07;1.00;;;;;;;9.77;93.39;98713.94;5033606;28;20527;-53
2022/05/29 03:58:35;;;;;;;0.70;0.60;;;;;;;9.70;88.07;98713.38;5038531;28;20055;-54
2022/05/29 04:01:01;;;;;;;1.73;0.70;;;;;;;9.63;91.25;98706.78;5035361;28;20079;-53
2022/05/29 04:03:26;;;;;;;4.70;0.77;;;;;;;9.61;89.34;98718.16;5039177;28;20095;-54
2022/05/29 04:05:53;;;;;;;2.00;1.10;;;;;;;9.69;89.99;98724.66;5034301;28;20502;-55
2022/05/29 04:13:48;;;;;;;3.33;1.25;;;;;;;9.80;90.32;98724.16;5046597;28;20045;-51
2022/05/29 04:16:14;;;;;;;1.35;0.85;;;;;;;9.79;89.06;98725.06;5033425;28;20515;-54
2022/05/29 04:18:40;;;;;;;4.55;1.00;;;;;;;9.71;89.81;98715.06;5047087;28;20069;-55
2022/05/29 04:21:06;;;;;;;2.88;1.05;;;;;;;9.87;90.93;98716.94;5042030;28;20036;-54
2022/05/29 04:23:32;;;;;;;3.60;1.20;;;;;;;9.97;88.96;98726.00;5035620;28;20162;-54
2022/05/29 04:25:58;;;;;;;2.03;1.40;;;;;;;10.11;85.70;98732.19;5052512;28;20045;-54
2022/05/29 04:28:24;;;;;;;1.95;1.10;;;;;;;10.19;85.60;98731.88;5044380;28;20059;-56
2022/05/29 04:30:50;;;;;;;7.72;1.08;;;;;;;10.35;83.68;98726.78;5038689;28;20128;-51
2022/05/29 04:33:16;;;;;;;1.52;0.90;;;;;;;10.48;81.49;98723.50;5034160;28;20103;-51
2022/05/29 04:35:48;;;;;;;2.05;0.88;;;;;;;10.73;79.80;98738.72;5040288;28;20052;-54
2022/05/29 04:38:15;;;;;;;2.17;0.75;;;;;;;10.74;79.06;98736.97;5049570;28;20049;-53
2022/05/29 04:40:42;;;;;;;2.17;0.90;;;;;;;10.92;79.55;98752.50;5034003;28;20044;-53
2022/05/29 04:43:11;;;;;;;3.30;0.90;;;;;;;10.96;77.86;98740.16;5050555;28;20029;-55
2022/05/29 04:45:39;;;;;;;4.72;0.95;;;;;;;11.02;80.70;98755.47;5016675;28;20045;-54
2022/05/29 04:48:06;;;;;;;3.13;0.70;;;;;;;10.99;77.22;98750.44;5033923;28;20032;-55
2022/05/29 04:50:32;;;;;;;4.10;0.80;;;;;;;10.98;80.69;98753.94;5038485;28;20531;-54
2022/05/29 04:52:57;;;;;;;0.90;0.70;;;;;;;10.89;76.35;98754.38;5033499;28;20036;-53
2022/05/29 04:55:23;;;;;;;0.90;0.63;;;;;;;10.85;77.64;98760.66;5032115;28;20471;-55
2022/05/29 04:57:49;;;;;;;2.60;0.90;;;;;;;10.92;80.05;98764.66;5030247;28;20084;-56
2022/05/29 05:00:15;;;;;;;2.35;0.70;;;;;;;10.99;76.09;98755.63;5031179;28;20048;-55
2022/05/29 05:02:41;;;;;;;1.95;0.75;;;;;;;11.13;76.09;98755.75;5034976;28;20517;-62
2022/05/29 05:05:08;;;;;;;1.08;0.70;;;;;;;11.17;75.55;98766.84;5038938;28;20045;-62
2022/05/29 05:07:35;;;;;;;3.25;0.98;;;;;;;11.32;77.17;98776.44;5047290;28;20797;-60
2022/05/29 05:10:03;;;;;;;7.55;0.93;;;;;;;11.31;74.62;98769.56;5051389;28;20040;-61
2022/05/29 05:12:28;;;;;;;1.73;0.70;;;;;;;11.50;75.48;98778.09;5050806;28;20132;-61
2022/05/29 05:14:54;;;;;;;1.35;0.68;;;;;;;11.55;75.98;98780.47;5019527;28;20049;-61
2022/05/29 05:17:20;;;;;;;1.60;0.68;;;;;;;11.69;72.01;98767.56;5011093;28;20092;-61
2022/05/29 05:19:46;;;;;;;1.48;0.73;;;;;;;11.82;73.15;98779.03;5061253;28;20132;-62
2022/05/29 05:22:12;;;;;;;1.90;0.68;;;;;;;11.81;70.59;98782.56;5045967;28;20544;-61
2022/05/29 05:24:38;;;;;;;0.80;0.80;;;;;;;12.00;71.31;98782.41;5034073;28;20167;-62
2022/05/29 05:27:06;;;;;;;0.95;0.60;;;;;;;12.21;70.12;98779.47;5033959;28;20501;-60
2022/05/29 05:29:31;;;;;;;2.38;0.60;;;;;;;12.14;67.54;98783.31;5032288;28;20457;-62
2022/05/29 05:31:57;;;;;;;0.77;0.50;;;;;;;12.18;67.22;98794.44;5041239;28;20190;-62
2022/05/29 05:34:23;;;;;;;2.42;0.60;;;;;;;12.27;68.94;98792.16;5039111;28;20433;-61
2022/05/29 05:36:49;;;;;;;5.43;0.65;;;;;;;12.31;68.96;98811.91;5037558;28;20037;-55
2022/05/29 05:39:15;;;;;;;1.15;0.60;;;;;;;12.21;68.16;98808.13;5051812;28;20459;-60
2022/05/29 05:41:40;;;;;;;1.17;0.80;;;;;;;12.28;68.50;98800.81;5051427;28;20517;-61
2022/05/29 05:44:06;;;;;;;1.50;0.70;;;;;;;12.46;69.67;98804.16;5045125;28;20106;-61
2022/05/29 05:46:32;;;;;;;1.23;0.75;;;;;;;12.58;68.71;98812.13;5045362;28;20533;-61
2022/05/29 05:49:00;;;;;;;1.95;0.75;;;;;;;12.64;66.86;98803.97;5050210;28;20064;-61
2022/05/29 05:51:26;;;;;;;3.88;0.73;;;;;;;12.49;67.07;98830.06;5018853;28;20461;-60
2022/05/29 05:53:51;;;;;;;2.75;0.70;;;;;;;12.18;68.57;98817.88;5043189;28;20045;-61
2022/05/29 05:56:17;;;;;;;1.23;0.88;;;;;;;11.92;69.23;98808.88;5031466;28;20029;-60
2022/05/29 05:58:44;;;;;;;1.52;0.75;;;;;;;11.84;69.45;98817.09;5030655;28;20064;-61
2022/05/29 06:01:12;;;;;;;1.23;0.70;;;;;;;11.71;70.38;98828.22;5032166;28;20056;-61
2022/05/29 06:03:39;;;;;;;1.17;0.80;;;;;;;11.62;71.93;98823.50;5037442;28;20053;-60
2022/05/29 06:06:05;;;;;;;4.05;0.90;;;;;;;11.61;72.35;98829.63;5049618;28;20051;-60
2022/05/29 06:08:31;;;;;;;2.78;0.85;;;;;;;11.65;72.43;98831.13;5038474;28;20059;-60
2022/05/29 06:10:57;;;;;;;3.22;1.08;;;;;;;11.69;71.97;98843.91;5032531;28;20521;-61
2022/05/29 06:13:23;;;;;;;2.72;0.90;;;;;;;11.75;72.41;98851.44;5029925;28;20484;-61
2022/05/29 06:15:49;;;;;;;5.25;0.95;;;;;;;11.75;71.97;98847.97;5029494;28;20038;-60
2022/05/29 06:18:16;;;;;;;3.00;0.90;;;;;;;11.63;72.59;98845.97;5028987;28;20505;-61
2022/05/29 06:20:45;;;;;;;2.10;1.00;;;;;;;11.68;73.16;98847.41;5031003;28;20497;-61
2022/05/29 06:23:12;;;;;;;1.10;0.63;;;;;;;11.78;71.97;98850.41;5013448;28;20044;-61
2022/05/29 06:25:42;;;;;;;3.97;0.90;;;;;;;11.72;71.78;98853.34;5029722;28;20524;-61
2022/05/29 06:28:08;;;;;;;4.30;0.93;;;;;;;11.75;71.30;98853.19;5031137;28;20045;-60
2022/05/29 06:30:35;;;;;;;2.08;0.70;;;;;;;11.81;71.21;98855.47;5030235;28;20068;-61
2022/05/29 06:33:01;;;;;;;3.80;0.80;;;;;;;11.87;70.10;98868.19;5030593;28;20049;-60
2022/05/29 06:35:29;;;;;;;2.97;0.55;;;;;;;11.91;68.81;98866.25;5026926;28;20094;-58
2022/05/29 06:37:55;;;;;;;1.77;0.98;;;;;;;12.02;68.30;98861.31;5030067;28;20124;-61
2022/05/29 06:40:21;;;;;;;0.80;0.60;;;;;;;12.18;67.51;98872.59;5039869;28;20037;-61
2022/05/29 06:42:46;;;;;;;3.45;0.52;;;;;;;12.26;66.56;98871.25;5050593;28;20032;-61
2022/05/29 06:45:12;;;;;;;0.30;0.30;;;;;;;12.27;66.00;98875.56;5036504;28;20183;-61
2022/05/29 06:47:39;;;;;;;0.73;0.52;;;;;;;12.36;66.75;98881.19;5030042;28;20037;-60
2022/05/29 06:50:07;;;;;;;1.02;0.50;;;;;;;12.63;66.13;98883.13;5028935;28;20171;-60
2022/05/29 06:52:32;;;;;;;1.40;0.50;;;;;;;12.97;64.06;98876.03;5025763;28;20041;-59
2022/05/29 06:54:59;;;;;;;2.33;0.70;;;;;;;13.68;62.09;98884.91;5030064;28;20095;-61
2022/05/29 06:57:43;;;;;;;3.08;0.63;;;;;;;13.83;61.74;98885.75;5036672;28;20052;-51
2022/05/29 07:08:32;;;;;;;2.97;0.80;;;;;;;13.36;61.52;98893.78;5030338;28;20461;-56
2022/05/29 07:11:02;;;;;;;2.97;0.70;;;;;;;13.01;62.55;98899.25;5025459;28;20405;-56
2022/05/29 07:13:29;;;;;;;1.40;0.80;;;;;;;12.66;63.22;98880.34;5009731;28;20104;-53
2022/05/29 07:15:55;;;;;;;1.90;0.70;;;;;;;12.76;64.09;98916.34;5026759;28;20501;-56
2022/05/29 07:18:21;;;;;;;1.73;0.80;;;;;;;12.41;65.54;98910.44;5028300;28;20044;-57
2022/05/29 07:20:46;;;;;;;3.00;0.65;;;;;;;12.17;66.81;98908.25;5029103;28;20497;-57
2022/05/29 07:23:14;;;;;;;1.10;0.70;;;;;;;12.01;68.14;98916.94;5023806;28;20029;-56
2022/05/29 07:25:40;;;;;;;1.25;0.80;;;;;;;11.77;70.13;98916.47;5030956;28;20127;-57
2022/05/29 07:28:08;;;;;;;0.95;0.60;;;;;;;11.62;71.63;98925.84;5027151;28;20137;-57
2022/05/29 07:30:34;;;;;;;2.75;0.70;;;;;;;11.30;73.44;98917.06;5029580;28;20041;-54
2022/05/29 07:33:00;;;;;;;1.80;0.70;;;;;;;11.36;74.83;98924.53;5028056;28;20038;-54
2022/05/29 07:35:27;;;;;;;1.88;0.88;;;;;;;11.23;75.26;98931.28;5028686;28;20091;-53
2022/05/29 07:37:53;;;;;;;2.10;1.05;;;;;;;11.28;75.79;98931.06;5037781;28;20033;-53
2022/05/29 07:40:18;;;;;;;1.70;1.25;;;;;;;11.09;76.72;98936.31;5037282;28;20037;-55
2022/05/29 07:45:28;;;;;;;3.17;1.17;;;;;;;10.71;79.81;98940.75;5031124;28;20045;-54
2022/05/29 07:47:55;;;;;;;3.80;0.93;;;;;;;10.60;82.45;98950.78;5030348;28;20051;-54
2022/05/29 07:50:22;;;;;;;1.67;1.02;;;;;;;10.50;84.61;98947.78;5033212;28;20041;-56
2022/05/29 07:52:50;;;;;;;3.40;1.30;;;;;;;10.49;86.33;98958.22;5033053;28;20073;-55
2022/05/29 07:55:17;;;;;;;4.32;1.23;;;;;;;10.38;88.18;98937.94;5035674;28;20037;-52
2022/05/29 07:57:43;;;;;;;6.25;1.05;;;;;;;10.53;87.67;98952.81;5022933;28;20053;-53
2022/05/29 08:00:12;;;;;;;3.05;1.02;;;;;;;10.66;87.11;98960.91;5030775;28;20044;-56
2022/05/29 08:02:38;;;;;;;6.43;1.08;;;;;;;10.82;86.69;98948.88;5026730;28;20422;-53
2022/05/29 08:07:51;;;;;;;5.65;1.17;;;;;;;11.40;82.89;98970.34;5056126;28;20972;-59
2022/05/29 08:10:19;;;;;;;1.67;0.95;;;;;;;11.67;80.33;98969.91;5052511;28;20041;-60
2022/05/29 08:12:46;;;;;;;2.55;1.30;;;;;;;12.08;80.01;98954.78;5049543;28;20543;-57
2022/05/29 08:15:12;;;;;;;2.65;1.00;;;;;;;12.65;77.62;98966.50;5056785;28;20088;-58
2022/05/29 08:17:39;;;;;;;3.45;1.13;;;;;;;13.56;73.32;98974.41;5051257;28;20416;-59
2022/05/29 08:20:06;;;;;;;3.03;1.20;;;;;;;14.42;69.88;98968.41;5051725;28;20102;-59
2022/05/29 08:22:31;;;;;;;2.30;1.13;;;;;;;15.38;64.56;98971.00;5055997;28;20045;-57
2022/05/29 08:30:38;;;;;;;6.03;1.15;;;;;;;17.65;54.26;98969.91;5046607;28;20076;-58
2022/05/29 08:33:32;;;;;;;1.65;1.10;;;;;;;17.86;52.80;98969.25;5045696;28;20397;-54
2022/05/29 08:36:02;;;;;;;2.45;1.13;;;;;;;17.64;52.47;98972.66;5045528;28;20037;-57
2022/05/29 08:38:29;;;;;;;2.97;1.10;;;;;;;18.52;50.57;98971.16;5045616;28;20132;-63
2022/05/29 08:41:02;;;;;;;1.63;1.30;;;;;;;20.36;46.32;98969.22;5045674;28;20543;-60
2022/05/29 08:43:40;;;;;;;5.32;1.10;;;;;;;20.56;44.28;98971.81;5046113;28;20037;-62
2022/05/29 08:46:22;;;;;;;4.15;1.30;;;;;;;19.58;47.74;98969.63;5044339;28;20033;-59
2022/05/29 08:48:51;;;;;;;1.90;1.50;;;;;;;20.25;46.74;98972.75;5047897;28;20053;-60
2022/05/29 08:51:30;;;;;;;1.45;1.27;;;;;;;21.16;43.27;98967.41;5045850;28;20204;-63
2022/05/29 08:54:14;;;;;;;1.85;1.20;;;;;;;20.96;43.93;98977.09;5045198;28;20040;-58
2022/05/29 08:57:08;;;;;;;2.58;1.17;;;;;;;21.88;39.47;98977.59;5044074;28;20048;-62
2022/05/29 08:59:58;;;;;;;2.17;1.10;;;;;;;21.92;40.58;98968.41;5058925;28;20071;-65
2022/05/29 09:02:33;;;;;;;4.50;1.20;;;;;;;21.55;41.56;98985.00;5025174;28;20042;-59
2022/05/29 09:05:04;;;;;;;4.47;1.83;;;;;;;22.31;40.72;98982.41;5041599;28;20034;-61
2022/05/29 09:07:32;;;;;;;1.45;1.00;;;;;;;22.32;38.59;98984.09;5082872;28;20423;-63
2022/05/29 09:10:03;;;;;;;2.72;0.85;;;;;;;22.27;38.11;98987.19;5051567;28;20044;-63
2022/05/29 09:12:34;;;;;;;2.60;1.10;;;;;;;21.08;40.21;98983.09;5042574;28;20036;-65
2022/05/29 09:15:27;;;;;;;2.05;1.00;;;;;;;22.34;38.36;98969.75;5041536;28;20072;-61
2022/05/29 09:17:56;;;;;;;1.30;1.10;;;;;;;24.34;35.17;98970.31;5020954;28;20066;-61
2022/05/29 09:20:32;;;;;;;1.52;1.20;;;;;;;25.81;31.62;98985.78;5021497;28;20068;-63
2022/05/29 09:23:00;;;;;;;1.30;0.90;;;;;;;26.02;31.36;98980.78;5030176;28;20137;-61
2022/05/29 09:25:34;;;;;;;1.47;1.10;;;;;;;23.76;34.29;98967.38;5018356;28;20402;-62
2022/05/29 09:28:13;;;;;;;2.70;1.38;;;;;;;24.76;32.56;98977.50;5032439;28;20072;-63
2022/05/29 09:30:40;;;;;;;1.10;1.05;;;;;;;25.12;30.22;98997.59;5025285;28;20491;-53
2022/05/29 09:33:20;;;;;;;1.77;0.90;;;;;;;25.15;30.05;98988.47;5031431;28;20484;-55
2022/05/29 09:36:06;;;;;;;1.10;1.00;;;;;;;25.31;29.87;98983.22;5030583;28;20120;-61
2022/05/29 09:38:38;;;;;;;1.70;1.25;;;;;;;25.79;29.66;99002.94;5030915;28;20135;-60
2022/05/29 09:41:26;;;;;;;1.05;0.90;;;;;;;27.70;28.13;98995.50;5017030;28;20118;-58
2022/05/29 09:44:04;;;;;;;1.77;1.00;;;;;;;27.94;26.97;98989.16;5062874;28;20050;-56
2022/05/29 09:46:35;;;;;;;1.20;1.10;;;;;;;28.02;26.95;98988.25;5031591;28;20041;-56
2022/05/29 09:52:04;;;;;;;1.25;1.00;;;;;;;27.17;27.98;99001.66;5034511;28;20433;-53
2022/05/29 09:54:36;;;;;;;1.50;1.13;;;;;;;26.44;29.09;98988.56;4997319;28;20068;-52
2022/05/29 09:57:05;;;;;;;1.50;0.90;;;;;;;26.94;28.13;98996.28;5035525;28;20033;-54
2022/05/29 09:59:36;;;;;;;5.50;1.33;;;;;;;25.61;29.78;98987.09;5032330;28;20037;-57
2022/05/29 10:02:03;;;;;;;2.15;0.90;;;;;;;24.54;30.48;98986.06;5032268;28;20045;-54
2022/05/29 10:04:37;;;;;;;2.10;1.10;;;;;;;25.24;28.29;98988.34;5030560;28;20045;-54
2022/05/29 10:07:27;;;;;;;1.10;1.00;;;;;;;25.66;28.15;98996.25;5031264;28;20558;-51
2022/05/29 10:10:06;;;;;;;1.10;1.00;;;;;;;27.35;27.02;98980.03;5063690;28;20064;-56
2022/05/29 10:12:37;;;;;;;1.27;1.17;;;;;;;29.50;25.23;98996.09;5032129;28;20067;-50
2022/05/29 10:15:05;;;;;;;1.20;1.10;;;;;;;30.21;23.05;98992.44;5033172;28;20111;-50
2022/05/29 10:17:35;;;;;;;3.22;1.08;;;;;;;30.36;22.63;99003.06;5037115;28;20037;-50
2022/05/29 10:20:01;;;;;;;1.60;1.40;;;;;;;30.67;22.46;98982.03;5032461;28;20129;-51
2022/05/29 10:22:37;;;;;;;2.97;1.20;;;;;;;30.16;22.37;98999.41;5034720;28;20048;-52
2022/05/29 10:25:20;;;;;;;2.05;1.20;;;;;;;28.10;24.84;98991.69;5026426;28;20132;-54
2022/05/29 10:27:47;;;;;;;1.92;0.98;;;;;;;28.29;24.18;98997.53;5015647;28;20048;-54
2022/05/29 10:30:46;;;;;;;2.45;0.85;;;;;;;28.77;24.53;98988.19;5039943;28;20040;-56
2022/05/29 10:33:21;;;;;;;1.63;0.80;;;;;;;28.90;24.20;98986.50;5040772;28;20056;-51
2022/05/29 10:35:47;;;;;;;2.22;0.57;;;;;;;28.27;24.44;98991.53;5024810;28;20045;-53
2022/05/29 10:38:13;;;;;;;3.90;0.90;;;;;;;27.55;25.84;98991.13;5031461;28;20142;-53
2022/05/29 10:40:41;;;;;;;1.65;0.60;;;;;;;26.18;26.96;98995.91;5031589;28;20135;-57
2022/05/29 10:43:08;;;;;;;2.05;1.00;;;;;;;25.46;27.71;98991.38;5013591;28;20045;-51
2022/05/29 10:45:41;;;;;;;1.10;0.70;;;;;;;25.77;26.82;99000.44;5030568;28;20056;-52
2022/05/29 10:48:12;;;;;;;1.42;1.10;;;;;;;25.75;27.44;98993.63;5030264;28;20053;-52
2022/05/29 10:51:17;;;;;;;0.80;0.80;;;;;;;26.23;27.22;98998.09;5029458;28;20481;-55
2022/05/29 10:53:59;;;;;;;0.50;0.50;;;;;;;25.38;27.92;98994.88;4971537;28;20141;-53
2022/05/29 10:56:43;;;;;;;2.97;0.60;;;;;;;23.64;29.99;99001.31;4990375;28;20054;-54
2022/05/29 10:59:40;;;;;;;1.67;0.70;;;;;;;22.22;32.21;98997.38;4990393;28;20042;-53
2022/05/29 11:05:34;;;;;;;2.70;0.90;;;;;;;20.75;35.44;99008.03;4989979;28;20253;-54
2022/05/29 11:08:17;;;;;;;2.00;0.68;;;;;;;20.19;36.89;99011.06;4989186;28;20048;-55
2022/05/29 11:10:58;;;;;;;1.88;0.70;;;;;;;19.56;38.06;99033.06;4998198;28;20430;-53
2022/05/29 11:13:42;;;;;;;2.53;0.88;;;;;;;18.72;38.95;99038.91;4974119;28;22658;-52
2022/05/29 11:16:35;;;;;;;0.43;0.43;;;;;;;18.13;40.84;99065.34;4986952;28;20046;-52
2022/05/29 11:19:25;;;;;;;4.78;0.95;;;;;;;17.10;45.29;99064.19;4971901;28;20073;-49
2022/05/29 11:22:13;;;;;;;5.10;0.95;;;;;;;15.95;50.58;99060.72;4985054;28;20117;-53
2022/05/29 11:24:48;;;;;;;4.45;0.90;;;;;;;15.07;53.38;99063.75;4993570;28;20399;-52
2022/05/29 11:27:41;;;;;;;0.80;0.50;;;;;;;14.46;55.84;99055.38;5032371;28;20041;-53
2022/05/29 11:30:23;;;;;;;1.77;1.15;;;;;;;14.13;56.05;99050.34;5031243;28;20060;-50
2022/05/29 11:33:18;;;;;;;2.08;0.77;;;;;;;14.12;55.73;99049.50;5063486;28;20045;-50
2022/05/29 11:35:56;;;;;;;1.40;0.80;;;;;;;14.28;53.49;99062.53;5027916;28;23387;-51
2022/05/29 11:38:35;;;;;;;1.30;0.90;;;;;;;14.43;52.25;99058.19;5015217;28;20037;-51
2022/05/29 11:41:16;;;;;;;2.25;1.42;;;;;;;14.84;52.00;99056.50;5028783;28;20210;-56
2022/05/29 11:43:51;;;;;;;3.17;1.05;;;;;;;15.11;50.44;99056.56;5029572;28;20424;-49
2022/05/29 11:52:28;;;;;;;2.47;1.00;;;;;;;15.68;49.39;99067.75;5057178;28;20315;-51
2022/05/29 11:55:19;;;;;;;8.65;2.03;;;;;;;15.68;49.77;99062.50;5010186;28;20141;-53
2022/05/29 11:58:08;;;;;;;4.45;1.20;;;;;;;16.25;48.96;99057.81;5023076;28;20080;-58
2022/05/29 12:01:07;;;;;;;1.85;1.10;;;;;;;17.09;47.93;99058.09;5017809;28;20037;-59
2022/05/29 12:03:39;;;;;;;1.70;1.02;;;;;;;18.21;45.58;99065.59;5033868;28;20100;-58
2022/05/29 12:06:06;;;;;;;4.43;1.10;;;;;;;19.34;43.75;99073.47;5025085;28;20098;-58
2022/05/29 12:08:55;;;;;;;2.75;1.20;;;;;;;20.76;40.40;99083.69;5027628;28;20119;-59
2022/05/29 12:11:31;;;;;;;2.72;1.40;;;;;;;21.69;38.29;99088.75;5053473;28;20535;-60
2022/05/29 12:14:01;;;;;;;1.90;1.17;;;;;;;22.49;36.20;99077.88;5024228;28;20512;-63
2022/05/29 12:16:29;;;;;;;1.58;1.40;;;;;;;23.30;35.38;99095.75;5050314;28;20045;-64
2022/05/29 12:18:57;;;;;;;2.15;1.67;;;;;;;23.12;34.54;99100.19;5030687;28;20069;-64
2022/05/29 12:21:46;;;;;;;1.92;1.20;;;;;;;23.18;34.87;99099.59;5022870;28;20080;-64
2022/05/29 12:24:17;;;;;;;1.95;1.10;;;;;;;24.27;33.29;99118.06;5010432;28;20432;-64
2022/05/29 12:26:52;;;;;;;3.42;1.20;;;;;;;24.65;32.73;99097.44;5025712;28;20038;-64
2022/05/29 12:29:25;;;;;;;2.70;1.10;;;;;;;25.04;30.21;99119.13;5017650;28;20044;-63
2022/05/29 12:32:10;;;;;;;3.25;1.15;;;;;;;24.08;31.43;99103.06;5026790;28;20399;-62
2022/05/29 12:34:52;;;;;;;2.20;1.10;;;;;;;23.77;31.66;99099.13;5023469;28;20067;-63
2022/05/29 12:37:44;;;;;;;4.72;1.13;;;;;;;23.41;32.09;99105.31;5018914;28;20045;-52
2022/05/29 12:40:13;;;;;;;1.20;0.68;;;;;;;22.70;32.23;99107.69;5025662;28;20128;-60